sensor_id;sensor_type;location;lat;lon;timestamp;P1;durP1;ratioP1;P2;durP2;ratioP2
9496;SDS011;4786;51.270;4.456;2023-07-13T00:00:48;9.10;;;2.63;;
9496;SDS011;4786;51.270;4.456;2023-07-13T00:03:14;6.83;;;2.40;;
9496;SDS011;4786;51.270;4.456;2023-07-13T00:05:40;6.07;;;2.13;;
9496;SDS011;4786;51.270;4.456;2023-07-13T00:08:07;6.97;;;2.23;;
9496;SDS011;4786;51.270;4.456;2023-07-13T00:10:33;5.77;;;2.47;;
9496;SDS011;4786;51.270;4.456;2023-07-13T00:12:59;8.80;;;2.37;;
9496;SDS011;4786;51.270;4.456;2023-07-13T00:15:26;8.87;;;2.50;;
9496;SDS011;4786;51.270;4.456;2023-07-13T00:17:55;8.03;;;2.60;;
9496;SDS011;4786;51.270;4.456;2023-07-13T00:20:21;6.30;;;2.53;;
9496;SDS011;4786;51.270;4.456;2023-07-13T00:22:49;11.50;;;2.67;;
9496;SDS011;4786;51.270;4.456;2023-07-13T00:25:18;6.23;;;2.50;;
9496;SDS011;4786;51.270;4.456;2023-07-13T00:27:47;8.37;;;2.40;;
9496;SDS011;4786;51.270;4.456;2023-07-13T00:30:16;7.20;;;2.60;;
9496;SDS011;4786;51.270;4.456;2023-07-13T00:32:42;7.17;;;2.37;;
9496;SDS011;4786;51.270;4.456;2023-07-13T00:35:09;7.10;;;2.47;;
9496;SDS011;4786;51.270;4.456;2023-07-13T00:37:35;8.07;;;2.93;;
9496;SDS011;4786;51.270;4.456;2023-07-13T00:40:04;6.50;;;2.20;;
9496;SDS011;4786;51.270;4.456;2023-07-13T00:42:31;4.77;;;2.70;;
9496;SDS011;4786;51.270;4.456;2023-07-13T00:45:05;10.17;;;2.67;;
9496;SDS011;4786;51.270;4.456;2023-07-13T00:47:37;5.57;;;2.53;;
9496;SDS011;4786;51.270;4.456;2023-07-13T00:50:04;9.50;;;2.83;;
9496;SDS011;4786;51.270;4.456;2023-07-13T00:52:33;9.73;;;2.80;;
9496;SDS011;4786;51.270;4.456;2023-07-13T00:55:02;11.27;;;3.37;;
9496;SDS011;4786;51.270;4.456;2023-07-13T00:57:28;9.87;;;3.13;;
9496;SDS011;4786;51.270;4.456;2023-07-13T00:59:57;8.90;;;3.30;;
9496;SDS011;4786;51.270;4.456;2023-07-13T01:02:31;11.73;;;3.07;;
9496;SDS011;4786;51.270;4.456;2023-07-13T01:04:58;9.73;;;3.20;;
9496;SDS011;4786;51.270;4.456;2023-07-13T01:07:25;10.53;;;3.27;;
9496;SDS011;4786;51.270;4.456;2023-07-13T01:09:50;11.97;;;3.30;;
9496;SDS011;4786;51.270;4.456;2023-07-13T01:12:17;10.73;;;2.97;;
9496;SDS011;4786;51.270;4.456;2023-07-13T01:14:43;10.77;;;3.27;;
9496;SDS011;4786;51.270;4.456;2023-07-13T01:17:12;12.43;;;3.70;;
9496;SDS011;4786;51.270;4.456;2023-07-13T01:19:39;11.27;;;3.40;;
9496;SDS011;4786;51.270;4.456;2023-07-13T01:22:14;9.90;;;3.03;;
9496;SDS011;4786;51.270;4.456;2023-07-13T01:24:42;9.67;;;3.30;;
9496;SDS011;4786;51.270;4.456;2023-07-13T01:27:10;10.47;;;3.90;;
9496;SDS011;4786;51.270;4.456;2023-07-13T01:29:38;11.50;;;3.37;;
9496;SDS011;4786;51.270;4.456;2023-07-13T01:32:07;10.93;;;3.47;;
9496;SDS011;4786;51.270;4.456;2023-07-13T01:34:38;10.47;;;3.77;;
9496;SDS011;4786;51.270;4.456;2023-07-13T01:37:07;13.17;;;3.93;;
9496;SDS011;4786;51.270;4.456;2023-07-13T01:39:33;9.70;;;3.83;;
9496;SDS011;4786;51.270;4.456;2023-07-13T01:41:59;12.90;;;3.80;;
9496;SDS011;4786;51.270;4.456;2023-07-13T01:44:25;9.50;;;3.47;;
9496;SDS011;4786;51.270;4.456;2023-07-13T01:46:51;11.50;;;3.80;;
9496;SDS011;4786;51.270;4.456;2023-07-13T01:49:17;11.57;;;4.30;;
9496;SDS011;4786;51.270;4.456;2023-07-13T01:51:43;10.93;;;3.90;;
9496;SDS011;4786;51.270;4.456;2023-07-13T01:54:09;12.50;;;4.13;;
9496;SDS011;4786;51.270;4.456;2023-07-13T01:56:35;10.37;;;3.50;;
9496;SDS011;4786;51.270;4.456;2023-07-13T01:59:02;10.10;;;4.00;;
9496;SDS011;4786;51.270;4.456;2023-07-13T02:01:28;11.67;;;3.70;;
9496;SDS011;4786;51.270;4.456;2023-07-13T02:03:53;11.27;;;3.53;;
9496;SDS011;4786;51.270;4.456;2023-07-13T02:06:20;11.17;;;3.80;;
9496;SDS011;4786;51.270;4.456;2023-07-13T02:08:45;12.00;;;3.77;;
9496;SDS011;4786;51.270;4.456;2023-07-13T02:11:12;11.87;;;4.27;;
9496;SDS011;4786;51.270;4.456;2023-07-13T02:13:38;15.47;;;4.30;;
9496;SDS011;4786;51.270;4.456;2023-07-13T02:16:03;13.03;;;4.10;;
9496;SDS011;4786;51.270;4.456;2023-07-13T02:18:30;10.47;;;4.03;;
9496;SDS011;4786;51.270;4.456;2023-07-13T02:20:55;10.90;;;3.60;;
9496;SDS011;4786;51.270;4.456;2023-07-13T02:23:21;11.03;;;3.67;;
9496;SDS011;4786;51.270;4.456;2023-07-13T02:25:47;15.23;;;4.30;;
9496;SDS011;4786;51.270;4.456;2023-07-13T02:28:12;11.20;;;4.17;;
9496;SDS011;4786;51.270;4.456;2023-07-13T02:30:38;12.87;;;4.03;;
9496;SDS011;4786;51.270;4.456;2023-07-13T02:33:05;14.37;;;4.53;;
9496;SDS011;4786;51.270;4.456;2023-07-13T02:35:31;13.63;;;4.63;;
9496;SDS011;4786;51.270;4.456;2023-07-13T02:37:57;14.93;;;4.20;;
9496;SDS011;4786;51.270;4.456;2023-07-13T02:40:23;13.37;;;4.20;;
9496;SDS011;4786;51.270;4.456;2023-07-13T02:42:49;15.90;;;4.53;;
9496;SDS011;4786;51.270;4.456;2023-07-13T02:45:15;14.70;;;4.63;;
9496;SDS011;4786;51.270;4.456;2023-07-13T02:47:41;15.57;;;4.80;;
9496;SDS011;4786;51.270;4.456;2023-07-13T02:50:07;16.40;;;4.63;;
9496;SDS011;4786;51.270;4.456;2023-07-13T02:52:34;13.90;;;4.67;;
9496;SDS011;4786;51.270;4.456;2023-07-13T02:55:00;11.93;;;4.17;;
9496;SDS011;4786;51.270;4.456;2023-07-13T02:57:26;17.63;;;4.67;;
9496;SDS011;4786;51.270;4.456;2023-07-13T02:59:53;13.93;;;4.57;;
9496;SDS011;4786;51.270;4.456;2023-07-13T03:02:19;12.47;;;4.43;;
9496;SDS011;4786;51.270;4.456;2023-07-13T03:04:46;14.50;;;4.50;;
9496;SDS011;4786;51.270;4.456;2023-07-13T03:07:11;9.80;;;4.10;;
9496;SDS011;4786;51.270;4.456;2023-07-13T03:09:39;12.73;;;4.20;;
9496;SDS011;4786;51.270;4.456;2023-07-13T03:12:05;13.60;;;4.47;;
9496;SDS011;4786;51.270;4.456;2023-07-13T03:14:31;17.23;;;4.77;;
9496;SDS011;4786;51.270;4.456;2023-07-13T03:16:57;14.17;;;4.57;;
9496;SDS011;4786;51.270;4.456;2023-07-13T03:19:23;13.53;;;4.73;;
9496;SDS011;4786;51.270;4.456;2023-07-13T03:21:49;13.97;;;5.03;;
9496;SDS011;4786;51.270;4.456;2023-07-13T03:24:14;14.33;;;5.03;;
9496;SDS011;4786;51.270;4.456;2023-07-13T03:26:41;13.30;;;5.07;;
9496;SDS011;4786;51.270;4.456;2023-07-13T03:29:07;15.17;;;4.90;;
9496;SDS011;4786;51.270;4.456;2023-07-13T03:31:33;17.13;;;5.40;;
9496;SDS011;4786;51.270;4.456;2023-07-13T03:34:00;14.73;;;4.70;;
9496;SDS011;4786;51.270;4.456;2023-07-13T03:36:27;13.70;;;5.17;;
9496;SDS011;4786;51.270;4.456;2023-07-13T03:38:58;16.03;;;5.77;;
9496;SDS011;4786;51.270;4.456;2023-07-13T03:41:26;12.77;;;5.30;;
9496;SDS011;4786;51.270;4.456;2023-07-13T03:43:52;16.17;;;6.00;;
9496;SDS011;4786;51.270;4.456;2023-07-13T03:46:18;14.40;;;6.23;;
9496;SDS011;4786;51.270;4.456;2023-07-13T03:48:46;16.07;;;6.73;;
9496;SDS011;4786;51.270;4.456;2023-07-13T03:51:13;17.00;;;7.33;;
9496;SDS011;4786;51.270;4.456;2023-07-13T03:53:41;15.87;;;6.40;;
9496;SDS011;4786;51.270;4.456;2023-07-13T03:56:09;16.43;;;7.13;;
9496;SDS011;4786;51.270;4.456;2023-07-13T03:58:37;16.37;;;6.77;;
9496;SDS011;4786;51.270;4.456;2023-07-13T04:01:06;14.90;;;6.63;;
9496;SDS011;4786;51.270;4.456;2023-07-13T04:03:33;16.67;;;6.93;;
9496;SDS011;4786;51.270;4.456;2023-07-13T04:06:00;12.70;;;5.70;;
9496;SDS011;4786;51.270;4.456;2023-07-13T04:08:27;15.00;;;6.17;;
9496;SDS011;4786;51.270;4.456;2023-07-13T04:10:54;17.23;;;6.50;;
9496;SDS011;4786;51.270;4.456;2023-07-13T04:13:21;21.23;;;6.87;;
9496;SDS011;4786;51.270;4.456;2023-07-13T04:15:47;18.73;;;6.43;;
9496;SDS011;4786;51.270;4.456;2023-07-13T04:18:13;18.67;;;5.80;;
9496;SDS011;4786;51.270;4.456;2023-07-13T04:20:40;15.17;;;5.93;;
9496;SDS011;4786;51.270;4.456;2023-07-13T04:23:06;15.00;;;5.90;;
9496;SDS011;4786;51.270;4.456;2023-07-13T04:25:33;20.90;;;6.97;;
9496;SDS011;4786;51.270;4.456;2023-07-13T04:27:59;16.47;;;6.53;;
9496;SDS011;4786;51.270;4.456;2023-07-13T04:30:25;16.60;;;6.40;;
9496;SDS011;4786;51.270;4.456;2023-07-13T04:32:52;20.63;;;7.27;;
9496;SDS011;4786;51.270;4.456;2023-07-13T04:35:18;16.87;;;7.63;;
9496;SDS011;4786;51.270;4.456;2023-07-13T04:37:48;19.77;;;8.43;;
9496;SDS011;4786;51.270;4.456;2023-07-13T04:40:15;18.93;;;8.20;;
9496;SDS011;4786;51.270;4.456;2023-07-13T04:42:45;20.30;;;8.13;;
9496;SDS011;4786;51.270;4.456;2023-07-13T04:45:11;21.43;;;7.93;;
9496;SDS011;4786;51.270;4.456;2023-07-13T04:47:38;23.73;;;8.60;;
9496;SDS011;4786;51.270;4.456;2023-07-13T04:50:04;20.77;;;7.57;;
9496;SDS011;4786;51.270;4.456;2023-07-13T04:52:30;20.03;;;7.67;;
9496;SDS011;4786;51.270;4.456;2023-07-13T04:54:58;19.43;;;7.73;;
9496;SDS011;4786;51.270;4.456;2023-07-13T04:57:24;19.20;;;7.70;;
9496;SDS011;4786;51.270;4.456;2023-07-13T04:59:50;16.87;;;7.33;;
9496;SDS011;4786;51.270;4.456;2023-07-13T05:02:16;20.33;;;7.77;;
9496;SDS011;4786;51.270;4.456;2023-07-13T05:04:42;17.97;;;7.00;;
9496;SDS011;4786;51.270;4.456;2023-07-13T05:07:11;19.50;;;7.93;;
9496;SDS011;4786;51.270;4.456;2023-07-13T05:09:37;17.23;;;6.90;;
9496;SDS011;4786;51.270;4.456;2023-07-13T05:12:03;22.30;;;7.37;;
9496;SDS011;4786;51.270;4.456;2023-07-13T05:14:30;16.37;;;6.47;;
9496;SDS011;4786;51.270;4.456;2023-07-13T05:16:56;19.20;;;6.83;;
9496;SDS011;4786;51.270;4.456;2023-07-13T05:19:22;21.83;;;7.47;;
9496;SDS011;4786;51.270;4.456;2023-07-13T05:21:48;21.77;;;7.20;;
9496;SDS011;4786;51.270;4.456;2023-07-13T05:24:14;14.30;;;6.03;;
9496;SDS011;4786;51.270;4.456;2023-07-13T05:26:40;19.97;;;6.63;;
9496;SDS011;4786;51.270;4.456;2023-07-13T05:29:06;16.87;;;6.40;;
9496;SDS011;4786;51.270;4.456;2023-07-13T05:31:31;16.57;;;5.63;;
9496;SDS011;4786;51.270;4.456;2023-07-13T05:33:57;17.73;;;6.30;;
9496;SDS011;4786;51.270;4.456;2023-07-13T05:36:23;14.73;;;5.93;;
9496;SDS011;4786;51.270;4.456;2023-07-13T05:38:49;19.00;;;5.93;;
9496;SDS011;4786;51.270;4.456;2023-07-13T05:41:15;17.23;;;5.87;;
9496;SDS011;4786;51.270;4.456;2023-07-13T05:43:41;14.37;;;5.67;;
9496;SDS011;4786;51.270;4.456;2023-07-13T05:46:07;16.80;;;6.00;;
9496;SDS011;4786;51.270;4.456;2023-07-13T05:48:32;14.43;;;4.77;;
9496;SDS011;4786;51.270;4.456;2023-07-13T05:50:58;14.60;;;5.47;;
9496;SDS011;4786;51.270;4.456;2023-07-13T05:53:25;14.73;;;5.70;;
9496;SDS011;4786;51.270;4.456;2023-07-13T05:55:51;18.50;;;5.50;;
9496;SDS011;4786;51.270;4.456;2023-07-13T05:58:19;16.43;;;5.47;;
9496;SDS011;4786;51.270;4.456;2023-07-13T06:00:46;18.13;;;5.60;;
9496;SDS011;4786;51.270;4.456;2023-07-13T06:03:12;11.73;;;4.90;;
9496;SDS011;4786;51.270;4.456;2023-07-13T06:05:38;12.80;;;5.40;;
9496;SDS011;4786;51.270;4.456;2023-07-13T06:08:05;14.90;;;4.90;;
9496;SDS011;4786;51.270;4.456;2023-07-13T06:10:35;17.17;;;5.30;;
9496;SDS011;4786;51.270;4.456;2023-07-13T06:13:01;12.33;;;5.53;;
9496;SDS011;4786;51.270;4.456;2023-07-13T06:15:27;15.57;;;4.70;;
9496;SDS011;4786;51.270;4.456;2023-07-13T06:17:53;12.07;;;4.20;;
9496;SDS011;4786;51.270;4.456;2023-07-13T06:20:18;12.73;;;4.80;;
9496;SDS011;4786;51.270;4.456;2023-07-13T06:22:44;15.67;;;4.70;;
9496;SDS011;4786;51.270;4.456;2023-07-13T06:25:10;15.97;;;4.90;;
9496;SDS011;4786;51.270;4.456;2023-07-13T06:27:36;15.13;;;5.13;;
9496;SDS011;4786;51.270;4.456;2023-07-13T06:30:01;12.03;;;4.83;;
9496;SDS011;4786;51.270;4.456;2023-07-13T06:32:28;15.13;;;5.55;;
9496;SDS011;4786;51.270;4.456;2023-07-13T06:34:53;10.60;;;4.13;;
9496;SDS011;4786;51.270;4.456;2023-07-13T06:37:19;16.13;;;5.20;;
9496;SDS011;4786;51.270;4.456;2023-07-13T06:39:45;15.75;;;4.75;;
9496;SDS011;4786;51.270;4.456;2023-07-13T06:42:11;11.32;;;4.90;;
9496;SDS011;4786;51.270;4.456;2023-07-13T06:44:37;15.45;;;4.93;;
9496;SDS011;4786;51.270;4.456;2023-07-13T06:47:03;13.93;;;5.20;;
9496;SDS011;4786;51.270;4.456;2023-07-13T06:49:29;11.65;;;4.57;;
9496;SDS011;4786;51.270;4.456;2023-07-13T06:51:55;14.13;;;4.68;;
9496;SDS011;4786;51.270;4.456;2023-07-13T06:54:21;15.98;;;4.35;;
9496;SDS011;4786;51.270;4.456;2023-07-13T06:56:47;14.80;;;4.60;;
9496;SDS011;4786;51.270;4.456;2023-07-13T06:59:13;13.55;;;4.43;;
9496;SDS011;4786;51.270;4.456;2023-07-13T07:01:39;10.68;;;4.38;;
9496;SDS011;4786;51.270;4.456;2023-07-13T07:04:06;14.55;;;4.20;;
9496;SDS011;4786;51.270;4.456;2023-07-13T07:06:31;12.02;;;4.75;;
9496;SDS011;4786;51.270;4.456;2023-07-13T07:08:57;11.82;;;4.65;;
9496;SDS011;4786;51.270;4.456;2023-07-13T07:11:24;11.48;;;4.53;;
9496;SDS011;4786;51.270;4.456;2023-07-13T07:13:51;11.82;;;4.35;;
9496;SDS011;4786;51.270;4.456;2023-07-13T07:16:18;12.23;;;4.80;;
9496;SDS011;4786;51.270;4.456;2023-07-13T07:18:45;11.35;;;4.55;;
9496;SDS011;4786;51.270;4.456;2023-07-13T07:21:12;12.50;;;4.15;;
9496;SDS011;4786;51.270;4.456;2023-07-13T07:23:40;10.95;;;4.03;;
9496;SDS011;4786;51.270;4.456;2023-07-13T07:26:07;9.80;;;4.30;;
9496;SDS011;4786;51.270;4.456;2023-07-13T07:28:35;12.55;;;4.57;;
9496;SDS011;4786;51.270;4.456;2023-07-13T07:31:01;14.10;;;4.50;;
9496;SDS011;4786;51.270;4.456;2023-07-13T07:33:27;15.23;;;5.00;;
9496;SDS011;4786;51.270;4.456;2023-07-13T07:35:53;14.60;;;4.78;;
9496;SDS011;4786;51.270;4.456;2023-07-13T07:38:19;10.85;;;4.50;;
9496;SDS011;4786;51.270;4.456;2023-07-13T07:40:44;12.00;;;4.10;;
9496;SDS011;4786;51.270;4.456;2023-07-13T07:43:11;14.70;;;4.75;;
9496;SDS011;4786;51.270;4.456;2023-07-13T07:45:38;14.70;;;4.80;;
9496;SDS011;4786;51.270;4.456;2023-07-13T07:48:05;14.38;;;4.15;;
9496;SDS011;4786;51.270;4.456;2023-07-13T07:50:32;15.05;;;4.70;;
9496;SDS011;4786;51.270;4.456;2023-07-13T07:52:59;15.38;;;4.65;;
9496;SDS011;4786;51.270;4.456;2023-07-13T07:55:27;12.88;;;4.18;;
9496;SDS011;4786;51.270;4.456;2023-07-13T07:57:53;13.75;;;4.00;;
9496;SDS011;4786;51.270;4.456;2023-07-13T08:00:19;11.68;;;4.32;;
9496;SDS011;4786;51.270;4.456;2023-07-13T08:02:45;16.75;;;5.07;;
9496;SDS011;4786;51.270;4.456;2023-07-13T08:05:11;12.27;;;4.03;;
9496;SDS011;4786;51.270;4.456;2023-07-13T08:07:37;11.30;;;4.53;;
9496;SDS011;4786;51.270;4.456;2023-07-13T08:10:05;15.70;;;4.90;;
9496;SDS011;4786;51.270;4.456;2023-07-13T08:12:38;11.32;;;4.30;;
9496;SDS011;4786;51.270;4.456;2023-07-13T08:15:05;11.88;;;4.30;;
9496;SDS011;4786;51.270;4.456;2023-07-13T08:17:35;13.68;;;4.32;;
9496;SDS011;4786;51.270;4.456;2023-07-13T08:20:00;10.27;;;3.83;;
9496;SDS011;4786;51.270;4.456;2023-07-13T08:22:27;10.45;;;4.00;;
9496;SDS011;4786;51.270;4.456;2023-07-13T08:24:53;10.15;;;3.95;;
9496;SDS011;4786;51.270;4.456;2023-07-13T08:27:22;10.70;;;3.95;;
9496;SDS011;4786;51.270;4.456;2023-07-13T08:29:49;9.18;;;3.75;;
9496;SDS011;4786;51.270;4.456;2023-07-13T08:32:15;13.80;;;4.00;;
9496;SDS011;4786;51.270;4.456;2023-07-13T08:34:43;14.98;;;3.90;;
9496;SDS011;4786;51.270;4.456;2023-07-13T08:37:09;9.38;;;4.25;;
9496;SDS011;4786;51.270;4.456;2023-07-13T08:39:35;12.70;;;4.10;;
9496;SDS011;4786;51.270;4.456;2023-07-13T08:42:04;8.98;;;3.40;;
9496;SDS011;4786;51.270;4.456;2023-07-13T08:47:25;10.63;;;3.95;;
9496;SDS011;4786;51.270;4.456;2023-07-13T08:49:52;11.15;;;4.30;;
9496;SDS011;4786;51.270;4.456;2023-07-13T08:58:11;10.95;;;4.07;;
9496;SDS011;4786;51.270;4.456;2023-07-13T09:03:21;12.05;;;4.28;;
9496;SDS011;4786;51.270;4.456;2023-07-13T09:05:51;9.45;;;4.05;;
9496;SDS011;4786;51.270;4.456;2023-07-13T09:11:00;8.50;;;3.63;;
9496;SDS011;4786;51.270;4.456;2023-07-13T09:14:00;11.40;;;4.20;;
9496;SDS011;4786;51.270;4.456;2023-07-13T09:16:41;10.65;;;3.97;;
9496;SDS011;4786;51.270;4.456;2023-07-13T09:19:08;14.20;;;4.20;;
9496;SDS011;4786;51.270;4.456;2023-07-13T09:21:40;7.32;;;3.58;;
9496;SDS011;4786;51.270;4.456;2023-07-13T09:27:17;10.70;;;3.35;;
9496;SDS011;4786;51.270;4.456;2023-07-13T09:29:49;9.07;;;4.05;;
9496;SDS011;4786;51.270;4.456;2023-07-13T09:32:21;10.85;;;4.03;;
9496;SDS011;4786;51.270;4.456;2023-07-13T09:34:51;7.53;;;3.03;;
9496;SDS011;4786;51.270;4.456;2023-07-13T09:37:18;9.43;;;3.60;;
9496;SDS011;4786;51.270;4.456;2023-07-13T09:39:52;8.98;;;3.30;;
9496;SDS011;4786;51.270;4.456;2023-07-13T09:42:20;6.13;;;3.10;;
9496;SDS011;4786;51.270;4.456;2023-07-13T09:44:52;7.45;;;3.42;;
9496;SDS011;4786;51.270;4.456;2023-07-13T09:47:23;7.72;;;2.95;;
9496;SDS011;4786;51.270;4.456;2023-07-13T09:49:58;6.65;;;3.10;;
9496;SDS011;4786;51.270;4.456;2023-07-13T09:52:25;7.13;;;2.72;;
9496;SDS011;4786;51.270;4.456;2023-07-13T09:54:55;7.53;;;3.20;;
9496;SDS011;4786;51.270;4.456;2023-07-13T09:57:24;7.15;;;2.67;;
9496;SDS011;4786;51.270;4.456;2023-07-13T09:59:52;5.35;;;2.58;;
9496;SDS011;4786;51.270;4.456;2023-07-13T10:02:26;4.47;;;2.90;;
9496;SDS011;4786;51.270;4.456;2023-07-13T10:04:55;7.10;;;2.72;;
9496;SDS011;4786;51.270;4.456;2023-07-13T10:07:26;8.80;;;2.72;;
9496;SDS011;4786;51.270;4.456;2023-07-13T10:09:53;7.63;;;2.60;;
9496;SDS011;4786;51.270;4.456;2023-07-13T10:12:20;4.05;;;2.28;;
9496;SDS011;4786;51.270;4.456;2023-07-13T10:14:48;4.90;;;2.35;;
9496;SDS011;4786;51.270;4.456;2023-07-13T10:17:19;4.18;;;2.53;;
9496;SDS011;4786;51.270;4.456;2023-07-13T10:20:02;4.88;;;2.33;;
9496;SDS011;4786;51.270;4.456;2023-07-13T10:22:39;4.85;;;2.33;;
9496;SDS011;4786;51.270;4.456;2023-07-13T10:27:45;5.68;;;2.35;;
9496;SDS011;4786;51.270;4.456;2023-07-13T10:30:14;7.70;;;2.92;;
9496;SDS011;4786;51.270;4.456;2023-07-13T10:32:48;4.57;;;2.40;;
9496;SDS011;4786;51.270;4.456;2023-07-13T10:35:16;7.68;;;2.80;;
9496;SDS011;4786;51.270;4.456;2023-07-13T10:37:49;6.25;;;2.85;;
9496;SDS011;4786;51.270;4.456;2023-07-13T10:40:39;5.78;;;2.53;;
9496;SDS011;4786;51.270;4.456;2023-07-13T10:43:14;6.95;;;2.33;;
9496;SDS011;4786;51.270;4.456;2023-07-13T10:45:49;6.28;;;2.60;;
9496;SDS011;4786;51.270;4.456;2023-07-13T10:48:16;4.75;;;2.28;;
9496;SDS011;4786;51.270;4.456;2023-07-13T10:50:43;5.03;;;2.63;;
9496;SDS011;4786;51.270;4.456;2023-07-13T10:58:39;4.53;;;2.35;;
9496;SDS011;4786;51.270;4.456;2023-07-13T11:01:11;6.45;;;2.05;;
9496;SDS011;4786;51.270;4.456;2023-07-13T11:08:59;7.53;;;2.55;;
9496;SDS011;4786;51.270;4.456;2023-07-13T11:11:48;5.50;;;2.60;;
9496;SDS011;4786;51.270;4.456;2023-07-13T11:28:04;7.00;;;3.17;;
9496;SDS011;4786;51.270;4.456;2023-07-13T11:30:32;9.75;;;3.42;;
9496;SDS011;4786;51.270;4.456;2023-07-13T11:38:36;7.22;;;3.50;;
9496;SDS011;4786;51.270;4.456;2023-07-13T11:41:05;9.13;;;3.97;;
9496;SDS011;4786;51.270;4.456;2023-07-13T11:43:37;7.30;;;3.90;;
9496;SDS011;4786;51.270;4.456;2023-07-13T11:46:17;7.47;;;3.38;;
9496;SDS011;4786;51.270;4.456;2023-07-13T11:48:45;7.22;;;3.30;;
9496;SDS011;4786;51.270;4.456;2023-07-13T11:51:16;6.75;;;3.78;;
9496;SDS011;4786;51.270;4.456;2023-07-13T11:53:47;6.15;;;3.30;;
9496;SDS011;4786;51.270;4.456;2023-07-13T11:56:15;5.53;;;3.08;;
9496;SDS011;4786;51.270;4.456;2023-07-13T11:58:42;7.18;;;2.83;;
9496;SDS011;4786;51.270;4.456;2023-07-13T12:01:15;4.68;;;2.85;;
9496;SDS011;4786;51.270;4.456;2023-07-13T12:03:56;5.68;;;3.15;;
9496;SDS011;4786;51.270;4.456;2023-07-13T12:06:27;6.40;;;3.30;;
9496;SDS011;4786;51.270;4.456;2023-07-13T12:09:10;4.55;;;2.58;;
9496;SDS011;4786;51.270;4.456;2023-07-13T12:11:39;4.53;;;2.70;;
9496;SDS011;4786;51.270;4.456;2023-07-13T12:14:12;4.40;;;3.15;;
9496;SDS011;4786;51.270;4.456;2023-07-13T12:16:40;5.60;;;3.08;;
9496;SDS011;4786;51.270;4.456;2023-07-13T12:19:23;6.63;;;2.97;;
9496;SDS011;4786;51.270;4.456;2023-07-13T12:21:56;4.85;;;2.97;;
9496;SDS011;4786;51.270;4.456;2023-07-13T12:24:23;6.28;;;3.20;;
9496;SDS011;4786;51.270;4.456;2023-07-13T12:29:24;4.57;;;3.03;;
9496;SDS011;4786;51.270;4.456;2023-07-13T12:31:50;3.67;;;2.40;;
9496;SDS011;4786;51.270;4.456;2023-07-13T12:34:18;3.33;;;2.60;;
9496;SDS011;4786;51.270;4.456;2023-07-13T12:36:50;4.43;;;2.75;;
9496;SDS011;4786;51.270;4.456;2023-07-13T12:39:20;4.13;;;2.25;;
9496;SDS011;4786;51.270;4.456;2023-07-13T12:41:49;3.85;;;2.13;;
9496;SDS011;4786;51.270;4.456;2023-07-13T12:44:17;4.38;;;2.30;;
9496;SDS011;4786;51.270;4.456;2023-07-13T12:46:56;2.80;;;2.30;;
9496;SDS011;4786;51.270;4.456;2023-07-13T12:49:26;4.00;;;2.15;;
9496;SDS011;4786;51.270;4.456;2023-07-13T12:51:58;4.63;;;2.05;;
9496;SDS011;4786;51.270;4.456;2023-07-13T12:54:25;3.78;;;1.90;;
9496;SDS011;4786;51.270;4.456;2023-07-13T12:56:52;3.13;;;2.10;;
9496;SDS011;4786;51.270;4.456;2023-07-13T12:59:20;3.28;;;2.20;;
9496;SDS011;4786;51.270;4.456;2023-07-13T13:01:48;3.90;;;2.20;;
9496;SDS011;4786;51.270;4.456;2023-07-13T13:04:15;4.20;;;2.33;;
9496;SDS011;4786;51.270;4.456;2023-07-13T13:06:41;3.47;;;2.33;;
9496;SDS011;4786;51.270;4.456;2023-07-13T13:09:15;5.10;;;2.42;;
9496;SDS011;4786;51.270;4.456;2023-07-13T13:11:41;5.90;;;2.30;;
9496;SDS011;4786;51.270;4.456;2023-07-13T13:14:07;3.75;;;2.40;;
9496;SDS011;4786;51.270;4.456;2023-07-13T13:21:43;4.30;;;2.40;;
9496;SDS011;4786;51.270;4.456;2023-07-13T13:24:11;4.78;;;2.78;;
9496;SDS011;4786;51.270;4.456;2023-07-13T13:26:42;5.07;;;3.22;;
9496;SDS011;4786;51.270;4.456;2023-07-13T13:29:10;7.35;;;3.40;;
9496;SDS011;4786;51.270;4.456;2023-07-13T13:31:42;6.43;;;3.15;;
9496;SDS011;4786;51.270;4.456;2023-07-13T13:34:13;5.00;;;2.90;;
9496;SDS011;4786;51.270;4.456;2023-07-13T13:36:41;4.10;;;2.65;;
9496;SDS011;4786;51.270;4.456;2023-07-13T13:39:50;7.13;;;3.38;;
9496;SDS011;4786;51.270;4.456;2023-07-13T13:42:01;6.50;;;3.58;;
9496;SDS011;4786;51.270;4.456;2023-07-13T13:44:26;7.07;;;3.38;;
9496;SDS011;4786;51.270;4.456;2023-07-13T13:46:53;5.28;;;3.70;;
9496;SDS011;4786;51.270;4.456;2023-07-13T13:49:22;5.18;;;3.30;;
9496;SDS011;4786;51.270;4.456;2023-07-13T13:51:50;6.85;;;3.38;;
9496;SDS011;4786;51.270;4.456;2023-07-13T13:54:18;6.40;;;3.50;;
9496;SDS011;4786;51.270;4.456;2023-07-13T13:56:50;6.97;;;4.00;;
9496;SDS011;4786;51.270;4.456;2023-07-13T13:59:17;5.07;;;3.25;;
9496;SDS011;4786;51.270;4.456;2023-07-13T14:01:46;4.03;;;3.03;;
9496;SDS011;4786;51.270;4.456;2023-07-13T14:04:20;7.38;;;3.20;;
9496;SDS011;4786;51.270;4.456;2023-07-13T14:06:48;6.07;;;3.50;;
9496;SDS011;4786;51.270;4.456;2023-07-13T14:09:15;6.35;;;3.72;;
9496;SDS011;4786;51.270;4.456;2023-07-13T14:11:43;5.85;;;3.30;;
9496;SDS011;4786;51.270;4.456;2023-07-13T14:14:19;6.15;;;3.17;;
9496;SDS011;4786;51.270;4.456;2023-07-13T14:16:48;6.55;;;3.65;;
9496;SDS011;4786;51.270;4.456;2023-07-13T14:19:18;5.70;;;3.65;;
9496;SDS011;4786;51.270;4.456;2023-07-13T14:21:45;8.73;;;3.97;;
9496;SDS011;4786;51.270;4.456;2023-07-13T14:24:12;7.70;;;3.67;;
9496;SDS011;4786;51.270;4.456;2023-07-13T14:26:40;7.75;;;3.90;;
9496;SDS011;4786;51.270;4.456;2023-07-13T14:29:16;5.38;;;3.28;;
9496;SDS011;4786;51.270;4.456;2023-07-13T14:31:44;6.45;;;3.13;;
9496;SDS011;4786;51.270;4.456;2023-07-13T14:34:10;7.38;;;3.20;;
9496;SDS011;4786;51.270;4.456;2023-07-13T14:36:41;5.93;;;2.83;;
9496;SDS011;4786;51.270;4.456;2023-07-13T14:39:11;5.57;;;2.45;;
9496;SDS011;4786;51.270;4.456;2023-07-13T14:41:38;5.53;;;2.75;;
9496;SDS011;4786;51.270;4.456;2023-07-13T14:44:08;4.45;;;2.40;;
9496;SDS011;4786;51.270;4.456;2023-07-13T14:46:39;4.60;;;2.38;;
9496;SDS011;4786;51.270;4.456;2023-07-13T14:49:11;3.65;;;2.00;;
9496;SDS011;4786;51.270;4.456;2023-07-13T14:51:42;5.40;;;2.80;;
9496;SDS011;4786;51.270;4.456;2023-07-13T14:54:08;4.72;;;2.40;;
9496;SDS011;4786;51.270;4.456;2023-07-13T14:56:35;7.53;;;2.92;;
9496;SDS011;4786;51.270;4.456;2023-07-13T14:59:01;6.75;;;3.35;;
9496;SDS011;4786;51.270;4.456;2023-07-13T15:01:26;6.45;;;3.30;;
9496;SDS011;4786;51.270;4.456;2023-07-13T15:03:54;5.32;;;3.03;;
9496;SDS011;4786;51.270;4.456;2023-07-13T15:06:20;3.97;;;3.05;;
9496;SDS011;4786;51.270;4.456;2023-07-13T15:08:47;4.93;;;2.92;;
9496;SDS011;4786;51.270;4.456;2023-07-13T15:11:13;15.07;;;3.55;;
9496;SDS011;4786;51.270;4.456;2023-07-13T15:13:40;6.97;;;3.20;;
9496;SDS011;4786;51.270;4.456;2023-07-13T15:16:28;4.65;;;2.83;;
9496;SDS011;4786;51.270;4.456;2023-07-13T15:18:53;12.90;;;4.72;;
9496;SDS011;4786;51.270;4.456;2023-07-13T15:21:20;13.50;;;4.60;;
9496;SDS011;4786;51.270;4.456;2023-07-13T15:23:48;6.05;;;3.75;;
9496;SDS011;4786;51.270;4.456;2023-07-13T15:26:15;4.95;;;3.75;;
9496;SDS011;4786;51.270;4.456;2023-07-13T15:28:43;6.82;;;3.83;;
9496;SDS011;4786;51.270;4.456;2023-07-13T15:31:18;7.43;;;4.15;;
9496;SDS011;4786;51.270;4.456;2023-07-13T15:33:49;6.47;;;4.00;;
9496;SDS011;4786;51.270;4.456;2023-07-13T15:36:20;4.93;;;3.83;;
9496;SDS011;4786;51.270;4.456;2023-07-13T15:38:47;4.57;;;3.60;;
9496;SDS011;4786;51.270;4.456;2023-07-13T15:43:49;5.63;;;4.13;;
9496;SDS011;4786;51.270;4.456;2023-07-13T15:46:17;5.25;;;3.42;;
9496;SDS011;4786;51.270;4.456;2023-07-13T15:48:46;5.50;;;3.65;;
9496;SDS011;4786;51.270;4.456;2023-07-13T15:51:15;4.47;;;3.55;;
9496;SDS011;4786;51.270;4.456;2023-07-13T15:53:54;5.78;;;4.25;;
9496;SDS011;4786;51.270;4.456;2023-07-13T15:56:29;4.88;;;3.60;;
9496;SDS011;4786;51.270;4.456;2023-07-13T15:58:55;4.97;;;3.58;;
9496;SDS011;4786;51.270;4.456;2023-07-13T16:01:23;9.32;;;4.30;;
9496;SDS011;4786;51.270;4.456;2023-07-13T16:03:49;8.82;;;4.45;;
9496;SDS011;4786;51.270;4.456;2023-07-13T16:06:25;5.43;;;3.80;;
9496;SDS011;4786;51.270;4.456;2023-07-13T16:08:57;5.65;;;4.03;;
9496;SDS011;4786;51.270;4.456;2023-07-13T16:11:24;4.28;;;3.72;;
9496;SDS011;4786;51.270;4.456;2023-07-13T16:13:52;5.47;;;3.80;;